Time;durP1;ratioP1;P1;durP2;ratioP2;P2;SDS_P1;SDS_P2;PMS_P1;PMS_P2;Temp;Humidity;BMP_temperature;BMP_pressure;BME280_temperature;BME280_humidity;BME280_pressure;Samples;Min_cycle;Max_cycle;Signal;HPM_P1;HPM_P2
2023/04/03 00:03:28;;;;;;;10.17;7.67;;;;;;;5.71;100.00;98167.94;18295747;32;20080;-59
2023/04/03 00:13:32;;;;;;;11.70;7.60;;;;;;;5.54;100.00;98166.94;18295391;32;20076;-59
2023/04/03 00:23:34;;;;;;;8.90;7.20;;;;;;;5.22;100.00;98165.22;18294920;32;20058;-59
2023/04/03 00:33:37;;;;;;;8.83;6.60;;;;;;;5.20;100.00;98171.84;18294457;32;20437;-59
2023/04/03 00:43:39;;;;;;;8.93;6.47;;;;;;;4.98;100.00;98179.50;18294213;32;20074;-59
2023/04/03 00:53:46;;;;;;;6.53;5.60;;;;;;;4.89;100.00;98184.31;18294801;32;20362;-59
2023/04/03 01:03:50;;;;;;;6.00;4.27;;;;;;;4.80;100.00;98189.16;18304849;32;20066;-59
2023/04/03 01:13:53;;;;;;;6.77;3.93;;;;;;;4.66;100.00;98182.25;18304467;32;20066;-59
2023/04/03 01:24:10;;;;;;;5.93;3.67;;;;;;;4.50;100.00;98205.06;18290151;32;20054;-59
2023/04/03 01:34:13;;;;;;;5.13;2.87;;;;;;;4.45;100.00;98202.19;18303405;32;20065;-59
2023/04/03 01:44:15;;;;;;;6.13;3.73;;;;;;;4.28;100.00;98192.00;18302869;32;20381;-59
2023/04/03 01:54:17;;;;;;;3.93;3.20;;;;;;;4.23;100.00;98199.88;18302480;32;20080;-59
2023/04/03 02:04:20;;;;;;;5.43;3.40;;;;;;;4.13;100.00;98197.66;18301734;32;20459;-59
2023/04/03 02:14:23;;;;;;;4.00;3.27;;;;;;;4.15;100.00;98208.16;18286927;32;20095;-59
2023/04/03 02:24:25;;;;;;;5.27;3.60;;;;;;;4.06;100.00;98211.09;18300779;32;20067;-59
2023/04/03 02:34:28;;;;;;;3.83;2.90;;;;;;;4.10;100.00;98205.28;18300663;32;20073;-59
2023/04/03 02:44:30;;;;;;;6.53;2.73;;;;;;;4.03;100.00;98222.22;18299806;32;20146;-58
2023/04/03 02:54:33;;;;;;;5.03;2.70;;;;;;;3.85;100.00;98214.91;18299478;32;20445;-58
2023/04/03 03:04:36;;;;;;;4.73;2.27;;;;;;;3.82;100.00;98222.53;18298921;32;20058;-59
2023/04/03 03:14:38;;;;;;;4.63;2.80;;;;;;;3.62;100.00;98214.56;18298560;32;20121;-59
2023/04/03 03:24:41;;;;;;;5.40;2.70;;;;;;;3.67;100.00;98212.94;18296961;32;20074;-58
2023/04/03 03:34:43;;;;;;;4.63;2.50;;;;;;;3.78;100.00;98229.34;18297103;32;20077;-58
2023/04/03 03:44:46;;;;;;;4.87;2.87;;;;;;;3.63;100.00;98221.56;18296750;32;20546;-58
2023/04/03 03:54:49;;;;;;;5.03;2.57;;;;;;;3.54;100.00;98213.78;18270216;32;20066;-58
2023/04/03 04:04:51;;;;;;;4.40;2.37;;;;;;;3.44;100.00;98224.13;18281989;32;20049;-59
2023/04/03 04:14:54;;;;;;;3.63;2.50;;;;;;;3.38;100.00;98228.44;18295641;32;20073;-58
2023/04/03 04:24:56;;;;;;;3.40;2.63;;;;;;;3.44;100.00;98239.31;18295253;32;20429;-58
2023/04/03 04:34:59;;;;;;;3.57;2.37;;;;;;;3.32;100.00;98237.28;18294150;32;20121;-58
2023/04/03 04:45:02;;;;;;;3.07;2.33;;;;;;;3.26;100.00;98227.41;18280062;32;20058;-57
2023/04/03 04:55:05;;;;;;;3.37;2.30;;;;;;;3.32;100.00;98221.25;18294057;32;20472;-58
2023/04/03 05:05:08;;;;;;;4.17;2.67;;;;;;;3.26;100.00;98232.78;18293431;32;20062;-59
2023/04/03 05:15:11;;;;;;;4.80;2.60;;;;;;;3.28;100.00;98243.28;18293355;32;20050;-59
2023/04/03 05:25:14;;;;;;;3.63;2.50;;;;;;;3.28;100.00;98257.44;18292673;32;20057;-58
2023/04/03 05:35:16;;;;;;;5.27;2.80;;;;;;;3.24;100.00;98256.22;18292478;32;20050;-58
2023/04/03 05:45:20;;;;;;;5.47;2.47;;;;;;;3.09;100.00;98252.97;18284002;32;20097;-58
2023/04/03 05:55:22;;;;;;;3.93;2.37;;;;;;;3.05;100.00;98248.00;18288388;32;20469;-58
2023/04/03 06:05:25;;;;;;;7.70;3.37;;;;;;;2.98;100.00;98244.53;18287930;32;20057;-58
2023/04/03 06:15:28;;;;;;;4.67;3.00;;;;;;;3.08;100.00;98262.00;18287522;32;20098;-57
2023/04/03 06:25:31;;;;;;;4.37;2.73;;;;;;;3.01;100.00;98256.66;18300759;32;20441;-59
2023/04/03 06:35:34;;;;;;;4.73;3.27;;;;;;;3.15;100.00;98265.47;18286292;32;20072;-59
2023/04/03 06:45:37;;;;;;;3.27;2.53;;;;;;;3.16;100.00;98265.28;18300053;32;20084;-58
2023/04/03 06:55:41;;;;;;;4.30;2.90;;;;;;;3.03;100.00;98276.81;18299123;32;20062;-59
2023/04/03 07:05:44;;;;;;;7.20;4.17;;;;;;;3.14;100.00;98282.53;18298819;32;20066;-58
2023/04/03 07:15:47;;;;;;;8.83;4.80;;;;;;;3.29;100.00;98282.31;18298410;32;20054;-59
2023/04/03 07:25:51;;;;;;;5.57;3.13;;;;;;;3.27;100.00;98293.22;18298201;32;20121;-59
2023/04/03 07:35:54;;;;;;;3.70;3.10;;;;;;;3.35;100.00;98298.34;18297274;32;20046;-58
2023/04/03 07:45:57;;;;;;;4.43;3.40;;;;;;;3.37;100.00;98307.00;18296840;32;20066;-59
2023/04/03 07:56:02;;;;;;;4.30;3.20;;;;;;;3.66;100.00;98312.91;18296419;32;20090;-59
2023/04/03 08:06:07;;;;;;;4.68;3.05;;;;;;;3.97;100.00;98314.03;18295310;32;20066;-58
2023/04/03 08:16:20;;;;;;;5.23;3.33;;;;;;;4.67;100.00;98318.66;18282421;32;20359;-59
2023/04/03 08:26:22;;;;;;;4.53;3.30;;;;;;;5.06;100.00;98323.97;18295257;32;20086;-59
2023/04/03 08:36:27;;;;;;;4.67;3.40;;;;;;;5.35;100.00;98324.34;18230823;32;20099;-58
2023/04/03 08:46:40;;;;;;;6.33;4.13;;;;;;;5.42;100.00;98325.91;18231516;32;20087;-58
2023/04/03 08:56:43;;;;;;;6.40;4.00;;;;;;;5.60;100.00;98321.63;18231233;32;20098;-58
2023/04/03 09:06:52;;;;;;;6.80;3.20;;;;;;;5.92;100.00;98337.59;18230597;32;20059;-58
2023/04/03 09:17:00;;;;;;;5.13;3.00;;;;;;;6.02;100.00;98340.63;18232785;32;20058;-58
2023/04/03 09:27:09;;;;;;;4.03;3.20;;;;;;;6.05;100.00;98345.53;18240478;32;20439;-58
2023/04/03 09:37:36;;;;;;;3.10;2.50;;;;;;;6.37;100.00;98339.19;18298034;32;20046;-58
2023/04/03 09:47:41;;;;;;;4.60;2.97;;;;;;;6.89;99.02;98344.06;18303061;32;20103;-58
2023/04/03 09:57:46;;;;;;;4.30;2.40;;;;;;;7.69;85.80;98337.38;18302003;32;20050;-58
2023/04/03 10:07:48;;;;;;;2.20;2.00;;;;;;;8.24;90.25;98348.78;18301944;32;20080;-58
2023/04/03 10:18:29;;;;;;;3.77;1.93;;;;;;;8.04;75.39;98338.41;18289450;32;20092;-58
2023/04/03 10:28:49;;;;;;;1.90;1.60;;;;;;;7.68;80.01;98335.75;18300075;32;20073;-58
2023/04/03 10:39:10;;;;;;;2.90;1.40;;;;;;;7.60;81.46;98326.13;18300531;32;20454;-58
2023/04/03 10:49:15;;;;;;;2.00;1.40;;;;;;;7.64;71.96;98326.50;18300150;32;20152;-58
2023/04/03 10:59:29;;;;;;;1.70;1.20;;;;;;;8.14;81.22;98317.88;18299488;32;20047;-58
2023/04/03 11:09:41;;;;;;;1.83;1.43;;;;;;;8.43;68.43;98315.22;18285432;32;20070;-59
2023/04/03 11:20:06;;;;;;;1.63;1.00;;;;;;;8.81;68.25;98318.34;18272178;32;20088;-59
2023/04/03 11:30:22;;;;;;;;;;;;;;;9.49;64.80;98313.81;18297723;32;20080;-59
2023/04/03 11:40:30;;;;;;;1.30;0.80;;;;;;;9.75;54.26;98292.56;18282796;32;20234;-59
2023/04/03 11:50:41;;;;;;;1.43;0.77;;;;;;;9.84;57.59;98291.09;18296996;32;20118;-59
2023/04/03 12:00:46;;;;;;;1.37;0.93;;;;;;;10.03;55.11;98281.84;18282646;32;20046;-59
2023/04/03 12:11:08;;;;;;;1.27;0.90;;;;;;;10.38;60.67;98281.50;18296314;32;20084;-58
2023/04/03 12:21:13;;;;;;;1.20;0.70;;;;;;;10.46;51.09;98272.94;18282114;32;20046;-59
2023/04/03 12:31:17;;;;;;;1.40;0.87;;;;;;;10.62;59.08;98278.47;18268004;32;20343;-59
2023/04/03 12:41:31;;;;;;;3.00;1.10;;;;;;;10.00;59.41;98269.66;18294320;32;20074;-59
2023/04/03 12:51:39;;;;;;;1.63;0.80;;;;;;;9.94;58.50;98262.56;18297215;32;20377;-59
2023/04/03 13:01:44;;;;;;;1.20;1.00;;;;;;;9.83;58.26;98248.94;18304857;32;20069;-59
2023/04/03 13:11:50;;;;;;;4.40;1.07;;;;;;;9.53;53.02;98245.84;18291003;32;20431;-59
2023/04/03 13:22:08;;;;;;;2.17;1.10;;;;;;;9.22;56.40;98242.69;18304008;32;20106;-59
2023/04/03 13:32:26;;;;;;;1.20;0.90;;;;;;;9.22;61.12;98245.38;18289433;32;20080;-59
2023/04/03 13:42:32;;;;;;;1.50;1.10;;;;;;;9.14;57.45;98243.91;18303108;32;20053;-59
2023/04/03 13:52:51;;;;;;;1.47;0.80;;;;;;;8.97;58.02;98228.53;18303281;32;20090;-58
2023/04/03 14:02:56;;;;;;;3.03;1.00;;;;;;;8.91;55.72;98232.25;18301460;32;20120;-59
2023/04/03 14:12:58;;;;;;;;;;;;;;;8.96;54.09;98226.94;18302070;32;20076;-59
2023/04/03 14:23:01;;;;;;;1.30;0.90;;;;;;;9.00;53.17;98227.25;18288122;32;19956;-58
2023/04/03 14:33:06;;;;;;;2.27;1.13;;;;;;;9.19;56.05;98202.72;18299977;32;20377;-59
2023/04/03 14:43:10;;;;;;;;;;;;;;;9.08;53.60;98197.16;18300325;32;20050;-58
2023/04/03 14:53:14;;;;;;;1.40;1.20;;;;;;;8.81;55.92;98202.41;18299927;32;19946;-58
2023/04/03 15:03:21;;;;;;;2.47;1.10;;;;;;;8.70;54.71;98196.06;18299289;32;20053;-58
2023/04/03 15:13:25;;;;;;;1.20;0.70;;;;;;;9.06;56.36;98195.75;18298696;32;20062;-58
2023/04/03 15:23:29;;;;;;;2.10;1.03;;;;;;;9.08;51.09;98186.34;18272055;32;20099;-58
2023/04/03 15:33:34;;;;;;;3.97;1.50;;;;;;;8.84;52.20;98201.94;18297166;32;20489;-58
2023/04/03 15:43:37;;;;;;;1.95;1.33;;;;;;;8.44;55.79;98192.88;18297375;32;20370;-58
2023/04/03 15:53:39;;;;;;;1.60;1.00;;;;;;;8.12;51.54;98196.06;18296839;32;20049;-58
2023/04/03 16:03:44;;;;;;;1.50;1.00;;;;;;;7.95;53.39;98192.53;18282668;32;20077;-58
2023/04/03 16:13:47;;;;;;;1.53;0.90;;;;;;;7.94;57.01;98186.31;18295916;32;20054;-58
2023/04/03 16:23:50;;;;;;;1.60;1.20;;;;;;;7.79;54.83;98186.84;18294716;32;20069;-58
2023/04/03 16:33:54;;;;;;;1.63;1.13;;;;;;;7.56;53.73;98186.91;18294511;32;20066;-58
2023/04/03 16:43:57;;;;;;;0.93;0.80;;;;;;;7.28;58.09;98178.53;18294493;32;20106;-58
2023/04/03 16:54:00;;;;;;;1.17;0.70;;;;;;;7.02;56.80;98184.41;18294211;32;20073;-58
2023/04/03 17:04:02;;;;;;;1.80;1.00;;;;;;;6.81;57.88;98188.47;18279887;32;20089;-58
2023/04/03 17:14:05;;;;;;;2.13;0.90;;;;;;;6.75;55.20;98198.28;18293028;32;20105;-58
2023/04/03 17:24:12;;;;;;;2.37;1.17;;;;;;;6.69;55.25;98194.66;18279360;32;20335;-58
2023/04/03 17:34:15;;;;;;;1.63;0.90;;;;;;;6.47;56.62;98193.56;18292516;32;20062;-59
2023/04/03 17:44:17;;;;;;;1.67;1.17;;;;;;;6.23;56.60;98196.19;18275705;32;20080;-58
2023/04/03 17:54:20;;;;;;;2.47;1.40;;;;;;;6.10;56.45;98189.16;18302716;32;20061;-58
2023/04/03 18:04:24;;;;;;;1.83;1.20;;;;;;;5.92;56.88;98195.34;18288572;32;20102;-58
2023/04/03 18:14:27;;;;;;;2.67;0.97;;;;;;;5.77;57.75;98204.63;18301728;32;20106;-58
2023/04/03 18:24:33;;;;;;;2.17;1.03;;;;;;;5.70;55.79;98198.53;18301229;32;20050;-57
2023/04/03 18:34:35;;;;;;;3.67;1.20;;;;;;;5.53;57.64;98202.84;18300490;32;20042;-58
2023/04/03 18:44:42;;;;;;;3.43;1.20;;;;;;;5.47;58.40;98203.72;18286098;32;20080;-58
2023/04/03 18:54:45;;;;;;;2.00;1.00;;;;;;;5.35;60.93;98215.22;18299464;32;20092;-58
2023/04/03 19:04:48;;;;;;;2.40;1.30;;;;;;;5.34;60.37;98226.16;18299047;32;20476;-57
2023/04/03 19:14:51;;;;;;;2.20;1.10;;;;;;;5.24;60.12;98221.31;18298678;32;20054;-58
2023/04/03 19:24:53;;;;;;;1.47;0.90;;;;;;;4.99;59.83;98221.31;18284680;32;20047;-58
2023/04/03 19:34:57;;;;;;;2.97;1.40;;;;;;;4.87;60.06;98238.13;18297529;32;20460;-58
2023/04/03 19:45:01;;;;;;;2.10;1.13;;;;;;;4.88;59.73;98233.59;18283793;32;20121;-57
2023/04/03 19:55:04;;;;;;;5.53;1.07;;;;;;;4.79;61.49;98232.22;18296783;32;20058;-58
2023/04/03 20:05:07;;;;;;;2.10;1.20;;;;;;;4.69;60.75;98230.84;18295574;32;20063;-59
2023/04/03 20:15:12;;;;;;;3.00;1.13;;;;;;;4.39;64.06;98219.97;18295913;32;20118;-58
2023/04/03 20:25:14;;;;;;;2.17;1.00;;;;;;;4.03;65.03;98222.22;18281478;32;20066;-58
2023/04/03 20:35:37;;;;;;;2.77;1.07;;;;;;;3.63;72.06;98214.38;18294898;32;20103;-58
2023/04/03 20:45:40;;;;;;;2.10;1.20;;;;;;;3.47;78.38;98217.53;18280790;32;20058;-58
2023/04/03 20:55:43;;;;;;;2.27;1.27;;;;;;;3.29;71.88;98215.50;18294017;32;20170;-58
2023/04/03 21:05:46;;;;;;;3.23;1.50;;;;;;;3.03;73.95;98207.34;18279889;32;20065;-57
2023/04/03 21:15:48;;;;;;;4.53;1.30;;;;;;;2.83;76.47;98201.19;18300174;32;20050;-58
2023/04/03 21:25:51;;;;;;;2.80;1.03;;;;;;;2.60;79.62;98193.59;18304083;32;20054;-58
2023/04/03 21:35:57;;;;;;;3.73;1.50;;;;;;;2.40;80.15;98183.75;18303591;32;20121;-58
2023/04/03 21:46:00;;;;;;;3.13;1.57;;;;;;;2.32;81.04;98181.28;18289316;32;20062;-58
2023/04/03 21:56:04;;;;;;;4.40;1.33;;;;;;;2.16;83.66;98187.81;18302508;32;20058;-58
2023/04/03 22:06:09;;;;;;;2.60;1.37;;;;;;;2.15;83.37;98178.16;18302171;32;20050;-58
2023/04/03 22:16:12;;;;;;;2.43;1.10;;;;;;;2.10;80.26;98175.31;18287860;32;20114;-59
2023/04/03 22:26:16;;;;;;;5.00;1.30;;;;;;;1.98;82.71;98175.06;18300596;32;20332;-58
2023/04/03 22:36:18;;;;;;;3.73;1.60;;;;;;;1.84;83.26;98175.03;18300566;32;20358;-58
2023/04/03 22:46:21;;;;;;;2.80;1.23;;;;;;;1.67;86.19;98181.75;18300063;32;20055;-59
2023/04/03 22:56:24;;;;;;;1.63;1.20;;;;;;;1.38;97.51;98165.03;18299855;32;20046;-58
2023/04/03 23:06:27;;;;;;;3.40;1.50;;;;;;;0.92;100.00;98161.12;18285818;32;20461;-59
2023/04/03 23:16:29;;;;;;;2.30;1.50;;;;;;;0.56;100.00;98156.75;18298888;32;20062;-58
2023/04/03 23:26:32;;;;;;;2.97;1.70;;;;;;;0.24;100.00;98151.00;18284269;32;20100;-58
2023/04/03 23:36:34;;;;;;;3.40;1.60;;;;;;;-0.03;100.00;98158.75;18296279;32;20441;-59
2023/04/03 23:46:36;;;;;;;3.13;1.60;;;;;;;-0.25;100.00;98154.41;18297419;32;20062;-59
2023/04/03 23:56:39;;;;;;;2.07;1.30;;;;;;;-0.40;100.00;98160.62;18296643;32;20361;-58
